Time;durP1;ratioP1;P1;durP2;ratioP2;P2;SDS_P1;SDS_P2;PMS_P1;PMS_P2;Temp;Humidity;BMP_temperature;BMP_pressure;BME280_temperature;BME280_humidity;BME280_pressure;Samples;Min_cycle;Max_cycle;Signal;HPM_P1;HPM_P2
2022/07/01 00:02:03;;;;;;;5.40;3.87;;;;;;;25.66;63.41;99372.25;4994983;28;20198;-72
2022/07/01 00:04:29;;;;;;;4.83;3.57;;;;;;;25.61;63.99;99366.88;4994675;28;20663;-81
2022/07/01 00:06:57;;;;;;;3.77;3.37;;;;;;;25.67;63.57;99368.41;4995220;28;20571;-78
2022/07/01 00:09:24;;;;;;;10.83;4.37;;;;;;;25.80;63.56;99370.41;4995088;28;20229;-78
2022/07/01 00:11:51;;;;;;;6.57;4.37;;;;;;;25.78;62.25;99373.41;4995736;28;20624;-80
2022/07/01 00:14:19;;;;;;;4.83;4.27;;;;;;;25.72;62.02;99371.06;4994975;28;20765;-81
2022/07/01 00:16:46;;;;;;;5.40;4.43;;;;;;;25.58;61.66;99381.06;4994409;28;20198;-81
2022/07/01 00:19:12;;;;;;;7.33;4.50;;;;;;;25.54;61.43;99382.78;4996116;28;20191;-81
2022/07/01 00:21:39;;;;;;;6.73;4.03;;;;;;;25.50;61.63;99379.03;4994647;28;20195;-78
2022/07/01 00:24:07;;;;;;;4.33;4.03;;;;;;;25.53;62.29;99367.56;4994871;28;20203;-78
2022/07/01 00:26:33;;;;;;;5.03;4.53;;;;;;;25.70;61.82;99363.19;4994834;28;20226;-82
2022/07/01 00:29:00;;;;;;;4.60;4.10;;;;;;;25.84;61.75;99365.97;4994896;28;20249;-82
2022/07/01 00:31:28;;;;;;;10.93;4.60;;;;;;;25.98;61.36;99364.09;4994927;28;20225;-82
2022/07/01 00:33:55;;;;;;;7.00;4.43;;;;;;;26.04;60.41;99362.94;4994918;28;20199;-82
2022/07/01 00:36:22;;;;;;;7.27;4.07;;;;;;;26.15;60.69;99367.06;4995029;28;20297;-82
2022/07/01 00:38:48;;;;;;;7.70;3.83;;;;;;;26.25;60.15;99361.44;4993848;28;20241;-80
2022/07/01 00:41:16;;;;;;;7.57;3.63;;;;;;;26.32;60.12;99351.75;4994434;28;20249;-82
2022/07/01 00:43:43;;;;;;;4.37;4.00;;;;;;;26.38;59.54;99355.97;4994187;28;20609;-81
2022/07/01 00:46:09;;;;;;;4.00;3.70;;;;;;;26.40;59.51;99352.97;4995260;28;20203;-81
2022/07/01 00:48:38;;;;;;;4.60;4.20;;;;;;;26.41;59.65;99357.31;4994585;28;20203;-81
2022/07/01 00:51:05;;;;;;;4.50;3.83;;;;;;;26.43;59.79;99358.63;4994371;28;20199;-81
2022/07/01 00:53:32;;;;;;;4.90;3.90;;;;;;;26.50;59.74;99350.84;4994214;28;20203;-82
2022/07/01 00:55:59;;;;;;;4.00;3.70;;;;;;;26.49;59.48;99353.88;4994059;28;20276;-82
2022/07/01 00:58:27;;;;;;;6.73;3.77;;;;;;;26.56;59.53;99351.56;4994604;28;20195;-82
2022/07/01 01:00:55;;;;;;;4.77;4.47;;;;;;;26.62;58.86;99356.63;4993831;28;20674;-82
2022/07/01 01:03:22;;;;;;;5.03;4.00;;;;;;;26.59;59.51;99356.44;4994441;28;20260;-82
2022/07/01 01:05:50;;;;;;;8.00;4.00;;;;;;;26.54;59.28;99353.78;4993768;28;20194;-82
2022/07/01 01:08:17;;;;;;;4.50;4.10;;;;;;;26.57;59.47;99361.34;4994188;28;20194;-83
2022/07/01 01:10:44;;;;;;;13.03;4.27;;;;;;;26.61;59.28;99367.81;4993577;28;20725;-83
2022/07/01 01:13:12;;;;;;;4.83;4.27;;;;;;;26.58;59.61;99360.28;4993894;28;20203;-82
2022/07/01 01:15:39;;;;;;;9.03;4.23;;;;;;;26.59;59.55;99362.69;4993661;28;20230;-82
2022/07/01 01:18:06;;;;;;;12.40;4.27;;;;;;;26.62;59.04;99361.28;4993567;28;20253;-81
2022/07/01 01:20:35;;;;;;;11.50;4.20;;;;;;;26.66;58.87;99352.19;4993905;28;20703;-81
2022/07/01 01:23:04;;;;;;;8.10;4.60;;;;;;;26.69;59.01;99356.22;4994281;28;20206;-81
2022/07/01 01:25:31;;;;;;;6.87;4.27;;;;;;;26.67;59.17;99353.81;4994335;28;20198;-81
2022/07/01 01:27:58;;;;;;;6.90;4.67;;;;;;;26.63;58.72;99354.72;4993149;28;20666;-80
2022/07/01 01:30:25;;;;;;;5.23;3.97;;;;;;;26.41;59.12;99340.97;4993861;28;20203;-79
2022/07/01 01:32:52;;;;;;;8.30;4.57;;;;;;;26.21;59.57;99354.97;4993890;28;20204;-81
2022/07/01 01:35:19;;;;;;;7.27;5.40;;;;;;;26.04;59.57;99354.75;4993475;28;20317;-80
2022/07/01 01:37:48;;;;;;;5.20;4.63;;;;;;;25.87;61.23;99349.84;4994075;28;20195;-82
2022/07/01 01:40:15;;;;;;;5.53;4.80;;;;;;;25.87;61.33;99340.84;4993458;28;20261;-81
2022/07/01 01:42:42;;;;;;;5.80;4.80;;;;;;;25.95;61.09;99345.66;4993400;28;20753;-79
2022/07/01 01:45:10;;;;;;;9.13;5.23;;;;;;;25.97;60.83;99343.44;4992839;28;20261;-79
2022/07/01 01:47:36;;;;;;;6.37;4.73;;;;;;;25.99;61.03;99343.94;4993432;28;20198;-74
2022/07/01 01:50:05;;;;;;;7.93;5.40;;;;;;;25.93;61.33;99347.84;4992779;28;20231;-75
2022/07/01 01:52:32;;;;;;;7.13;5.90;;;;;;;25.74;60.63;99350.63;4993056;28;20280;-76
2022/07/01 01:55:00;;;;;;;6.37;5.80;;;;;;;25.54;61.67;99352.84;4993121;28;20289;-74
2022/07/01 01:57:27;;;;;;;10.87;5.70;;;;;;;25.35;61.58;99360.25;4992707;28;20198;-74
2022/07/01 01:59:54;;;;;;;6.23;5.50;;;;;;;25.22;62.20;99353.59;4993161;28;20293;-74
2022/07/01 02:02:21;;;;;;;7.40;5.70;;;;;;;25.08;63.19;99369.81;4993352;28;20203;-74
2022/07/01 02:04:48;;;;;;;8.70;5.70;;;;;;;25.07;62.90;99367.38;4992723;28;20666;-74
2022/07/01 02:07:15;;;;;;;5.53;5.03;;;;;;;25.02;63.10;99369.38;4993226;28;20245;-74
2022/07/01 02:09:41;;;;;;;7.30;5.00;;;;;;;25.07;62.73;99363.88;4992596;28;20199;-74
2022/07/01 02:12:10;;;;;;;5.63;5.30;;;;;;;25.04;62.71;99371.50;4992993;28;20198;-73
2022/07/01 02:14:37;;;;;;;6.67;5.30;;;;;;;24.95;62.71;99370.53;4992770;28;20234;-74
2022/07/01 02:17:04;;;;;;;10.53;4.93;;;;;;;24.79;62.91;99365.63;4992725;28;20643;-74
2022/07/01 02:19:31;;;;;;;6.37;5.13;;;;;;;24.71;64.35;99375.19;4993288;28;20206;-74
2022/07/01 02:21:57;;;;;;;5.37;4.87;;;;;;;24.73;64.27;99373.03;4992529;28;20256;-74
2022/07/01 02:24:24;;;;;;;6.83;5.53;;;;;;;24.79;63.75;99384.63;4992380;28;20673;-74
2022/07/01 02:26:51;;;;;;;5.50;5.20;;;;;;;24.85;63.63;99376.13;4992720;28;20269;-74
2022/07/01 02:29:19;;;;;;;6.17;5.07;;;;;;;24.85;64.10;99370.69;4992687;28;20198;-75
2022/07/01 02:31:46;;;;;;;7.20;5.20;;;;;;;24.90;63.71;99378.78;4993453;28;20256;-74
2022/07/01 02:34:12;;;;;;;5.33;4.90;;;;;;;24.99;63.70;99382.44;4992271;28;20257;-74
2022/07/01 02:36:39;;;;;;;7.10;5.17;;;;;;;25.08;62.46;99390.78;4992838;28;20219;-75
2022/07/01 02:39:06;;;;;;;9.37;6.03;;;;;;;25.17;62.65;99388.19;4992276;28;20670;-75
2022/07/01 02:42:22;;;;;;;6.43;4.80;;;;;;;25.00;61.54;99389.50;4992697;28;20202;-75
2022/07/01 02:44:21;;;;;;;6.13;5.07;;;;;;;24.80;62.04;99388.97;4992363;28;20202;-74
2022/07/01 02:46:47;;;;;;;8.67;5.40;;;;;;;24.75;62.32;99392.53;4993271;28;20268;-74
2022/07/01 02:49:15;;;;;;;8.27;5.50;;;;;;;24.77;61.24;99395.78;4992585;28;20203;-74
2022/07/01 02:51:41;;;;;;;5.17;4.70;;;;;;;24.68;60.90;99402.97;4992195;28;20694;-73
2022/07/01 02:54:08;;;;;;;6.00;5.40;;;;;;;24.58;61.43;99403.03;4991948;28;20191;-74
2022/07/01 02:56:35;;;;;;;5.70;5.20;;;;;;;24.54;61.58;99402.00;4992331;28;20226;-73
2022/07/01 02:59:01;;;;;;;8.10;4.80;;;;;;;24.56;62.50;99407.97;4992037;28;20666;-72
2022/07/01 03:01:30;;;;;;;7.43;5.20;;;;;;;24.67;62.08;99400.53;4992272;28;20195;-72
2022/07/01 03:03:56;;;;;;;6.63;5.70;;;;;;;24.74;61.55;99404.53;4992054;28;20195;-73
2022/07/01 03:06:23;;;;;;;5.87;4.97;;;;;;;24.69;60.99;99415.44;4992323;28;20214;-73
2022/07/01 03:08:50;;;;;;;7.13;5.13;;;;;;;24.57;61.67;99425.88;4991912;28;20733;-73
2022/07/01 03:11:17;;;;;;;5.50;4.93;;;;;;;24.54;61.68;99429.16;4992208;28;20261;-73
2022/07/01 03:13:44;;;;;;;5.50;4.90;;;;;;;24.50;61.74;99427.31;4992220;28;20230;-74
2022/07/01 03:16:11;;;;;;;7.23;5.40;;;;;;;24.46;62.51;99426.28;4992500;28;20218;-75
2022/07/01 03:18:39;;;;;;;8.53;5.70;;;;;;;24.55;62.16;99435.41;4994722;28;20198;-74
2022/07/01 03:21:06;;;;;;;8.40;5.07;;;;;;;24.66;62.58;99429.59;4995770;28;20253;-73
2022/07/01 03:23:32;;;;;;;6.10;4.87;;;;;;;24.83;61.85;99431.88;4995453;28;20725;-73
2022/07/01 03:25:59;;;;;;;5.43;5.03;;;;;;;24.90;61.64;99433.13;4995333;28;20206;-74
2022/07/01 03:28:26;;;;;;;5.50;5.00;;;;;;;24.85;61.24;99433.19;4996046;28;20194;-74
2022/07/01 03:30:53;;;;;;;9.03;4.80;;;;;;;24.88;61.00;99440.75;4995289;28;20255;-74
2022/07/01 03:33:19;;;;;;;7.57;5.47;;;;;;;24.92;60.76;99436.34;4996070;28;20248;-74
2022/07/01 03:35:47;;;;;;;5.07;4.77;;;;;;;25.01;61.07;99428.38;4995402;28;20662;-73
2022/07/01 03:38:14;;;;;;;10.63;4.97;;;;;;;25.11;60.87;99424.72;4994985;28;20260;-74
2022/07/01 03:40:41;;;;;;;12.20;4.93;;;;;;;25.21;60.92;99430.00;4995003;28;20205;-73
2022/07/01 03:43:09;;;;;;;6.43;4.97;;;;;;;25.30;60.85;99428.28;4995012;28;20664;-73
2022/07/01 03:45:35;;;;;;;9.30;5.30;;;;;;;25.33;60.08;99435.84;4995010;28;20195;-72
2022/07/01 03:48:03;;;;;;;9.13;5.00;;;;;;;25.23;60.83;99416.94;4994964;28;20229;-73
2022/07/01 03:50:29;;;;;;;17.90;6.00;;;;;;;25.13;60.74;99426.03;4994929;28;20285;-73
2022/07/01 03:55:42;;;;;;;12.87;5.13;;;;;;;25.25;60.39;99434.59;4995226;28;20245;-73
2022/07/01 03:58:09;;;;;;;10.33;5.37;;;;;;;25.11;60.73;99433.66;4994708;28;20737;-73
2022/07/01 04:00:38;;;;;;;11.73;5.83;;;;;;;25.20;60.79;99431.13;4995569;28;20268;-73
2022/07/01 04:03:05;;;;;;;7.80;5.17;;;;;;;25.36;60.22;99435.28;4994724;28;20191;-74
2022/07/01 04:05:34;;;;;;;15.30;5.53;;;;;;;25.76;58.56;99434.69;4994645;28;20740;-75
2022/07/01 04:08:03;;;;;;;10.03;5.50;;;;;;;26.40;55.88;99440.97;4994242;28;20290;-75
2022/07/01 04:10:30;;;;;;;8.37;5.00;;;;;;;27.02;53.50;99439.50;4994477;28;20287;-73
2022/07/01 04:12:57;;;;;;;9.40;5.20;;;;;;;27.76;50.87;99453.41;4994482;28;20202;-73
2022/07/01 04:15:24;;;;;;;9.00;5.50;;;;;;;28.26;48.58;99454.13;4995223;28;20277;-73
2022/07/01 04:17:51;;;;;;;26.50;5.83;;;;;;;28.93;47.29;99445.47;4994683;28;20199;-72
2022/07/01 04:20:18;;;;;;;7.77;5.00;;;;;;;29.73;44.88;99447.75;4995084;28;20199;-73
2022/07/01 04:22:43;;;;;;;6.40;5.03;;;;;;;30.40;43.49;99450.72;4994026;28;20806;-74
2022/07/01 04:25:11;;;;;;;8.47;5.60;;;;;;;31.00;42.05;99460.41;4994309;28;20214;-74
2022/07/01 04:27:38;;;;;;;13.17;4.63;;;;;;;31.32;40.82;99446.00;4993950;28;20246;-74
2022/07/01 04:30:05;;;;;;;5.70;4.70;;;;;;;31.82;40.42;99455.03;4993746;28;20268;-74
2022/07/01 04:32:32;;;;;;;11.03;4.57;;;;;;;32.30;38.80;99455.25;4994025;28;20254;-73
2022/07/01 04:34:59;;;;;;;9.80;4.50;;;;;;;32.88;37.30;99452.19;4994262;28;20628;-72
2022/07/01 04:37:26;;;;;;;6.53;3.93;;;;;;;33.40;36.17;99455.03;4993821;28;20229;-72
2022/07/01 04:39:52;;;;;;;9.03;5.00;;;;;;;33.80;34.92;99458.59;4995055;28;20199;-71
2022/07/01 04:42:22;;;;;;;10.90;4.83;;;;;;;34.13;33.86;99459.19;4995026;28;20245;-72
2022/07/01 04:44:48;;;;;;;5.25;3.92;;;;;;;34.42;33.24;99447.00;4994152;28;20266;-72
2022/07/01 04:47:15;;;;;;;6.33;4.10;;;;;;;34.60;32.84;99449.06;4994391;28;20272;-72
2022/07/01 04:49:42;;;;;;;7.95;3.80;;;;;;;34.91;32.98;99446.31;4994091;28;20198;-72
2022/07/01 04:52:08;;;;;;;9.30;3.88;;;;;;;35.01;32.47;99447.75;4994459;28;20280;-72
2022/07/01 04:54:35;;;;;;;6.40;3.83;;;;;;;35.33;31.85;99446.56;4993573;28;20632;-73
2022/07/01 04:57:02;;;;;;;3.88;3.42;;;;;;;35.52;31.43;99443.84;4993459;28;20222;-72
2022/07/01 04:59:30;;;;;;;4.28;3.03;;;;;;;36.07;31.87;99446.19;4993511;28;20257;-75
2022/07/01 05:01:58;;;;;;;5.68;2.92;;;;;;;35.79;32.24;99440.09;4993890;28;20203;-77
2022/07/01 05:04:26;;;;;;;3.30;2.78;;;;;;;35.81;31.60;99446.06;4993708;28;20222;-75
2022/07/01 05:06:53;;;;;;;6.28;3.38;;;;;;;35.81;31.80;99443.31;4993360;28;20242;-75
2022/07/01 05:09:19;;;;;;;7.78;3.50;;;;;;;36.02;31.60;99443.75;4993381;28;20194;-75
2022/07/01 05:11:46;;;;;;;7.40;3.13;;;;;;;35.99;31.84;99450.00;4993298;28;20666;-75
2022/07/01 05:14:13;;;;;;;19.08;4.22;;;;;;;36.10;31.31;99445.47;4993029;28;20281;-75
2022/07/01 05:16:41;;;;;;;10.32;3.60;;;;;;;36.37;31.37;99447.19;4993121;28;20226;-75
2022/07/01 05:21:58;;;;;;;14.35;3.83;;;;;;;36.29;31.12;99453.78;4993636;28;20189;-75
2022/07/01 05:24:27;;;;;;;5.07;3.45;;;;;;;36.36;31.60;99456.66;4993344;28;20194;-74
2022/07/01 05:26:54;;;;;;;30.77;5.07;;;;;;;36.58;31.16;99455.91;4993143;28;20599;-75
2022/07/01 05:29:21;;;;;;;44.50;6.25;;;;;;;36.29;31.61;99453.78;4994446;28;20195;-75
2022/07/01 05:31:49;;;;;;;3.20;2.90;;;;;;;36.23;31.17;99455.25;4993083;28;20253;-75
2022/07/01 05:34:16;;;;;;;8.77;4.32;;;;;;;36.23;30.76;99452.47;4992973;28;20741;-74
2022/07/01 05:36:43;;;;;;;8.00;3.40;;;;;;;36.32;31.09;99458.56;4992887;28;20706;-73
2022/07/01 05:39:11;;;;;;;6.70;3.67;;;;;;;36.36;30.96;99453.91;4992700;28;20194;-72
2022/07/01 05:41:38;;;;;;;7.60;3.40;;;;;;;36.44;31.29;99450.09;4992650;28;20278;-73
2022/07/01 05:44:05;;;;;;;18.67;4.00;;;;;;;36.47;30.90;99460.44;4992570;28;20253;-73
2022/07/01 05:46:32;;;;;;;8.50;3.70;;;;;;;36.65;30.38;99445.75;4992813;28;20206;-72
2022/07/01 05:49:00;;;;;;;7.78;4.00;;;;;;;36.67;30.42;99448.16;4992664;28;20261;-71
2022/07/01 05:51:27;;;;;;;7.25;3.40;;;;;;;37.01;29.28;99458.25;4978564;28;20195;-74
2022/07/01 05:53:54;;;;;;;5.65;3.58;;;;;;;37.23;29.42;99460.19;4973271;28;20206;-74
2022/07/01 05:56:21;;;;;;;11.45;3.72;;;;;;;37.59;29.20;99464.31;4973325;28;20222;-74
2022/07/01 05:58:47;;;;;;;5.57;3.50;;;;;;;37.78;28.57;99464.16;4973459;28;20287;-75
2022/07/01 06:01:14;;;;;;;8.60;3.60;;;;;;;37.79;28.76;99461.03;4972665;28;20199;-73
2022/07/01 06:03:41;;;;;;;9.52;3.72;;;;;;;38.03;27.99;99462.50;4973152;28;20620;-74
2022/07/01 06:06:09;;;;;;;7.63;3.88;;;;;;;38.10;28.11;99459.84;4973108;28;20663;-72
2022/07/01 06:08:36;;;;;;;3.65;2.95;;;;;;;38.04;28.21;99461.38;4972151;28;20207;-73
2022/07/01 06:11:03;;;;;;;8.35;2.97;;;;;;;37.88;28.22;99463.53;4972761;28;20206;-73
2022/07/01 06:13:30;;;;;;;9.02;3.08;;;;;;;38.02;27.44;99458.94;4972619;28;20246;-73
2022/07/01 06:15:58;;;;;;;7.15;2.85;;;;;;;38.12;27.14;99458.28;4972653;28;20576;-73
2022/07/01 06:18:25;;;;;;;22.30;4.10;;;;;;;37.98;27.86;99458.09;4972463;28;20230;-73
2022/07/01 06:20:52;;;;;;;26.23;5.05;;;;;;;37.87;28.06;99451.63;4973011;28;20196;-75
2022/07/01 06:23:20;;;;;;;5.65;3.15;;;;;;;37.36;28.38;99449.69;4972645;28;20226;-74
2022/07/01 06:25:47;;;;;;;12.43;4.00;;;;;;;37.54;28.13;99465.41;4983707;28;20202;-72
2022/07/01 06:28:14;;;;;;;3.42;3.17;;;;;;;37.50;28.41;99461.78;4992439;28;20230;-73
2022/07/01 06:30:43;;;;;;;11.40;3.00;;;;;;;37.52;28.81;99467.78;4992276;28;20748;-74
2022/07/01 06:33:11;;;;;;;6.15;3.00;;;;;;;37.41;28.42;99466.00;4992565;28;20257;-73
2022/07/01 06:35:38;;;;;;;4.28;2.80;;;;;;;37.31;28.56;99467.44;4992086;28;20571;-73
2022/07/01 06:38:04;;;;;;;4.40;3.15;;;;;;;37.63;27.49;99468.72;4992202;28;20741;-72
2022/07/01 06:40:33;;;;;;;3.13;2.92;;;;;;;37.49;27.86;99462.97;4993241;28;20253;-74
2022/07/01 06:43:00;;;;;;;5.75;2.58;;;;;;;37.60;27.26;99461.16;4992377;28;20202;-73
2022/07/01 06:45:26;;;;;;;7.10;3.58;;;;;;;37.59;27.18;99467.88;4992988;28;20261;-74
2022/07/01 06:47:53;;;;;;;3.67;3.38;;;;;;;36.75;28.58;99460.97;4992648;28;20261;-73
2022/07/01 06:50:20;;;;;;;5.15;3.33;;;;;;;36.87;28.95;99463.56;4992189;28;20729;-76
2022/07/01 06:52:47;;;;;;;6.07;3.70;;;;;;;36.88;28.74;99459.63;4993304;28;20194;-73
2022/07/01 06:55:13;;;;;;;4.70;2.88;;;;;;;36.75;28.38;99453.47;4996185;28;20706;-75
2022/07/01 06:57:42;;;;;;;6.53;2.85;;;;;;;36.76;28.47;99452.31;4996141;28;20226;-72
2022/07/01 07:00:10;;;;;;;12.85;3.72;;;;;;;37.01;28.66;99455.47;4996004;28;20199;-73
2022/07/01 07:02:36;;;;;;;16.08;3.10;;;;;;;36.90;28.61;99454.50;4995847;28;20654;-72
2022/07/01 07:05:03;;;;;;;5.70;3.20;;;;;;;37.12;28.72;99460.00;4995858;28;20198;-72
2022/07/01 07:07:30;;;;;;;9.02;3.53;;;;;;;37.24;28.46;99462.59;4995783;28;20662;-72
2022/07/01 07:09:57;;;;;;;3.83;2.72;;;;;;;37.50;28.15;99453.47;4995888;28;20579;-72
2022/07/01 07:12:23;;;;;;;7.65;2.92;;;;;;;37.77;27.42;99457.84;4995551;28;20190;-72
2022/07/01 07:14:52;;;;;;;6.63;2.90;;;;;;;37.95;26.96;99446.94;4995654;28;20230;-72
2022/07/01 07:17:19;;;;;;;9.95;3.40;;;;;;;37.80;27.53;99443.19;4995346;28;20226;-72
2022/07/01 07:19:45;;;;;;;6.35;3.28;;;;;;;37.84;27.96;99444.03;4995850;28;20195;-72
2022/07/01 07:22:12;;;;;;;6.10;2.90;;;;;;;37.10;28.69;99440.19;4995551;28;20249;-72
2022/07/01 07:24:39;;;;;;;5.25;3.03;;;;;;;37.18;28.00;99438.34;4994921;28;20293;-72
2022/07/01 07:27:06;;;;;;;6.45;2.75;;;;;;;37.42;28.26;99443.44;4995077;28;20703;-73
2022/07/01 07:29:32;;;;;;;7.10;2.90;;;;;;;37.65;28.08;99446.97;4987406;28;20199;-73
2022/07/01 07:32:00;;;;;;;8.68;3.50;;;;;;;37.60;28.30;99447.28;4992210;28;20191;-73
2022/07/01 07:34:27;;;;;;;14.70;3.50;;;;;;;37.54;28.11;99442.41;4984063;28;20199;-70
2022/07/01 07:36:54;;;;;;;5.07;2.63;;;;;;;37.42;28.13;99446.22;4990322;28;20219;-70
2022/07/01 07:39:21;;;;;;;3.75;2.72;;;;;;;36.80;29.57;99446.81;4975022;28;20262;-71
2022/07/01 07:41:47;;;;;;;7.30;2.90;;;;;;;36.69;29.22;99443.06;4975411;28;20253;-71
2022/07/01 07:44:14;;;;;;;6.97;2.50;;;;;;;36.73;28.63;99446.69;4975485;28;20258;-71
2022/07/01 07:46:41;;;;;;;5.32;3.13;;;;;;;36.44;28.20;99452.88;4990613;28;20195;-74
2022/07/01 07:49:09;;;;;;;8.75;2.72;;;;;;;36.76;29.18;99445.97;4994897;28;20194;-72
2022/07/01 07:51:36;;;;;;;4.28;2.45;;;;;;;36.95;28.90;99443.91;4994936;28;20670;-71
2022/07/01 07:54:03;;;;;;;4.45;3.15;;;;;;;36.61;29.19;99444.06;4975179;28;20200;-72
2022/07/01 07:56:30;;;;;;;7.70;3.20;;;;;;;36.27;29.89;99447.81;4975313;28;20223;-71
2022/07/01 07:58:56;;;;;;;7.68;3.05;;;;;;;36.12;30.06;99443.13;4975443;28;20208;-71
2022/07/01 08:01:23;;;;;;;11.20;3.47;;;;;;;36.18;29.14;99436.16;4974649;28;20191;-71
2022/07/01 08:03:50;;;;;;;4.97;2.53;;;;;;;36.09;29.10;99435.59;4974014;28;20258;-72
2022/07/01 08:06:18;;;;;;;6.13;2.28;;;;;;;35.97;29.29;99435.75;4974493;28;20738;-71
2022/07/01 08:08:46;;;;;;;10.75;3.08;;;;;;;36.23;29.31;99441.41;4973430;28;20719;-71
2022/07/01 08:11:13;;;;;;;9.55;3.15;;;;;;;35.97;29.39;99438.50;4975220;28;20555;-71
2022/07/01 08:13:39;;;;;;;5.88;2.72;;;;;;;36.32;28.90;99440.00;4974993;28;20231;-71
2022/07/01 08:16:06;;;;;;;7.70;2.50;;;;;;;36.56;28.22;99436.91;4975277;28;20187;-71
2022/07/01 08:18:33;;;;;;;7.68;2.17;;;;;;;36.62;27.49;99435.41;4975165;28;20285;-74
2022/07/01 08:21:00;;;;;;;12.77;3.45;;;;;;;36.70;26.91;99437.16;4975349;28;20196;-74
2022/07/01 08:23:28;;;;;;;2.85;2.35;;;;;;;36.28;27.44;99438.34;4974891;28;20195;-74
2022/07/01 08:25:54;;;;;;;5.13;2.50;;;;;;;36.40;27.60;99443.69;4975243;28;20246;-74
2022/07/01 08:28:21;;;;;;;4.97;2.33;;;;;;;36.60;27.15;99434.19;4974504;28;20624;-74
2022/07/01 08:30:48;;;;;;;5.40;2.75;;;;;;;36.92;27.58;99438.31;4974615;28;20295;-76
2022/07/01 08:33:15;;;;;;;10.35;2.67;;;;;;;36.63;27.03;99427.91;4974991;28;20214;-74
2022/07/01 08:35:41;;;;;;;4.35;2.28;;;;;;;36.67;26.91;99431.53;4974709;28;20277;-74
2022/07/01 08:38:08;;;;;;;2.47;2.28;;;;;;;37.11;27.01;99441.00;4978920;28;20219;-74
2022/07/01 08:40:37;;;;;;;3.00;2.58;;;;;;;37.41;26.62;99425.22;4974688;28;20200;-77
2022/07/01 08:43:06;;;;;;;8.63;2.90;;;;;;;37.25;25.93;99435.69;4974501;28;20195;-75
2022/07/01 08:45:35;;;;;;;4.22;2.63;;;;;;;37.38;25.72;99428.75;4974196;28;20211;-74
2022/07/01 08:48:03;;;;;;;2.72;2.20;;;;;;;37.63;25.92;99429.91;4974987;28;20203;-75
2022/07/01 08:50:32;;;;;;;5.57;2.10;;;;;;;37.78;26.38;99430.88;4974674;28;20199;-74
2022/07/01 08:52:59;;;;;;;7.65;2.45;;;;;;;37.67;26.58;99427.97;4974335;28;20660;-76
2022/07/01 08:55:26;;;;;;;6.45;2.42;;;;;;;37.52;27.31;99425.38;4974134;28;20332;-76
2022/07/01 08:57:55;;;;;;;4.60;2.72;;;;;;;37.29;25.78;99425.44;4974121;28;20718;-71
2022/07/01 09:00:22;;;;;;;4.88;2.20;;;;;;;37.18;25.84;99418.94;4973866;28;20632;-69
2022/07/01 09:02:57;;;;;;;15.38;2.55;;;;;;;37.55;25.60;99416.31;4974820;28;20257;-72
2022/07/01 09:05:26;;;;;;;9.82;2.70;;;;;;;37.92;26.30;99417.97;4974253;28;20195;-74
2022/07/01 09:07:58;;;;;;;4.80;2.60;;;;;;;38.00;26.09;99411.34;4974611;28;20199;-74
2022/07/01 09:10:25;;;;;;;5.72;2.60;;;;;;;38.01;26.33;99410.19;4973883;28;20195;-72
2022/07/01 09:12:52;;;;;;;3.75;2.50;;;;;;;37.83;26.01;99406.38;4974366;28;20196;-72
2022/07/01 09:15:28;;;;;;;19.13;3.35;;;;;;;37.73;26.19;99409.84;4974298;28;20310;-74
2022/07/01 09:17:56;;;;;;;3.72;2.63;;;;;;;37.55;26.82;99405.22;4974375;28;20211;-72
2022/07/01 09:20:29;;;;;;;5.50;2.70;;;;;;;37.63;26.59;99413.25;4974045;28;20196;-72
2022/07/01 09:23:01;;;;;;;6.97;2.45;;;;;;;37.84;26.13;99394.09;4973664;28;20250;-71
2022/07/01 09:25:29;;;;;;;7.88;2.33;;;;;;;37.58;26.77;99399.72;4973467;28;20195;-72
2022/07/01 09:28:08;;;;;;;8.30;3.22;;;;;;;37.66;27.16;99404.19;4973714;28;20725;-72
2022/07/01 09:30:37;;;;;;;3.28;2.50;;;;;;;37.84;26.73;99407.97;4973548;28;20738;-72
2022/07/01 09:33:11;;;;;;;6.68;2.50;;;;;;;37.96;26.28;99402.16;4973704;28;20729;-72
2022/07/01 09:35:38;;;;;;;5.70;2.65;;;;;;;38.22;25.96;99402.09;4973356;28;20278;-72
2022/07/01 09:38:07;;;;;;;2.70;2.50;;;;;;;38.44;25.85;99403.09;4989858;28;20237;-72
2022/07/01 09:40:55;;;;;;;5.82;2.50;;;;;;;38.58;26.23;99386.59;4993148;28;20198;-73
2022/07/01 09:43:24;;;;;;;23.20;3.67;;;;;;;38.65;26.45;99392.22;4993517;28;20206;-72
2022/07/01 09:46:02;;;;;;;6.43;2.60;;;;;;;38.38;26.38;99393.53;4993384;28;20206;-67
2022/07/01 09:48:43;;;;;;;26.27;4.63;;;;;;;38.42;27.16;99389.59;4993433;28;20190;-67
2022/07/01 09:51:11;;;;;;;6.95;2.95;;;;;;;37.92;26.94;99387.47;4993442;28;20574;-67
2022/07/01 09:53:39;;;;;;;6.10;2.83;;;;;;;37.82;27.85;99392.88;4993884;28;20198;-67
2022/07/01 09:56:06;;;;;;;4.15;2.78;;;;;;;37.89;27.00;99379.09;4992669;28;20198;-67
2022/07/01 09:58:33;;;;;;;11.60;3.22;;;;;;;38.17;26.83;99388.56;4992443;28;20218;-67
2022/07/01 10:01:02;;;;;;;6.43;2.88;;;;;;;38.31;27.28;99394.25;4992667;28;20289;-67
2022/07/01 10:03:33;;;;;;;5.32;2.50;;;;;;;38.17;27.10;99380.22;4992832;28;20195;-67
2022/07/01 10:06:20;;;;;;;5.78;2.67;;;;;;;38.32;26.58;99373.63;4992890;28;20194;-67
2022/07/01 10:09:04;;;;;;;3.92;2.30;;;;;;;38.48;26.99;99374.22;4992558;28;20233;-67
2022/07/01 10:12:06;;;;;;;11.98;3.08;;;;;;;38.25;26.48;99379.13;4991862;28;20189;-76
2022/07/01 10:14:37;;;;;;;4.45;3.10;;;;;;;38.44;26.50;99376.13;4990418;28;20226;-76
2022/07/01 10:17:06;;;;;;;3.83;2.63;;;;;;;38.52;26.64;99365.91;4989094;28;20249;-74
2022/07/01 10:19:33;;;;;;;6.07;2.60;;;;;;;38.72;26.09;99370.03;4988133;28;20733;-74
2022/07/01 10:22:02;;;;;;;6.90;2.90;;;;;;;38.39;26.06;99373.72;4987804;28;20210;-77
2022/07/01 10:25:28;;;;;;;7.55;2.40;;;;;;;38.69;25.89;99370.78;4987783;28;20190;-78
2022/07/01 10:28:16;;;;;;;3.58;3.05;;;;;;;38.80;25.84;99378.03;4989301;28;20653;-73
2022/07/01 10:30:53;;;;;;;3.97;2.80;;;;;;;38.97;24.58;99371.03;4990785;28;20661;-78
2022/07/01 10:33:53;;;;;;;4.38;2.90;;;;;;;38.74;25.09;99356.56;4992277;28;20198;-75
2022/07/01 10:36:27;;;;;;;3.33;3.03;;;;;;;38.90;24.07;99365.41;4990849;28;20728;-74
2022/07/01 10:39:22;;;;;;;6.07;2.90;;;;;;;38.95;23.92;99356.75;4974757;28;20226;-74
2022/07/01 10:42:00;;;;;;;15.98;3.72;;;;;;;38.65;24.61;99350.56;4973638;28;20191;-75
2022/07/01 10:44:28;;;;;;;4.50;3.22;;;;;;;38.59;24.44;99346.53;4974564;28;20238;-77
2022/07/01 10:46:59;;;;;;;5.63;3.03;;;;;;;38.69;24.51;99343.81;4974327;28;20331;-78
2022/07/01 10:49:59;;;;;;;4.88;2.92;;;;;;;38.84;22.74;99345.53;4975450;28;20250;-73
2022/07/01 10:52:27;;;;;;;5.78;2.75;;;;;;;39.03;21.89;99341.69;4991895;28;20214;-74
2022/07/01 10:54:56;;;;;;;6.60;3.15;;;;;;;38.32;23.54;99328.41;4979072;28;20702;-72
2022/07/01 10:57:27;;;;;;;3.22;3.03;;;;;;;38.32;23.10;99332.00;4975316;28;20261;-72
2022/07/01 10:59:56;;;;;;;4.47;3.13;;;;;;;38.56;23.60;99330.63;4975158;28;20188;-74
2022/07/01 11:02:25;;;;;;;6.15;3.10;;;;;;;38.80;23.13;99344.72;4974943;28;20199;-74
2022/07/01 11:04:54;;;;;;;2.95;2.85;;;;;;;38.84;23.13;99339.97;4974376;28;20671;-75
2022/07/01 11:07:27;;;;;;;4.30;2.67;;;;;;;38.66;23.10;99332.69;4970861;28;20194;-75
2022/07/01 11:11:05;;;;;;;4.43;3.35;;;;;;;38.39;23.11;99329.28;4985491;28;20186;-75
2022/07/01 11:13:33;;;;;;;16.30;3.83;;;;;;;37.54;23.76;99331.50;4990480;28;20190;-74
2022/07/01 11:16:00;;;;;;;8.65;2.90;;;;;;;37.72;23.34;99325.03;4987773;28;20218;-75
2022/07/01 11:18:31;;;;;;;3.80;3.08;;;;;;;37.80;23.12;99323.91;4992224;28;20222;-74
2022/07/01 11:21:06;;;;;;;6.53;3.20;;;;;;;37.92;22.67;99326.44;4992707;28;20624;-74
2022/07/01 11:23:34;;;;;;;3.17;2.97;;;;;;;38.02;22.77;99322.16;4995064;28;20261;-75
2022/07/01 11:26:01;;;;;;;3.10;2.80;;;;;;;37.62;23.07;99325.72;4995516;28;20191;-73
2022/07/01 11:28:27;;;;;;;4.05;2.83;;;;;;;37.41;23.29;99322.66;4995121;28;20562;-73
2022/07/01 11:31:00;;;;;;;3.25;2.95;;;;;;;37.52;23.78;99318.06;4994833;28;20636;-74
2022/07/01 11:33:27;;;;;;;6.65;2.97;;;;;;;37.64;23.73;99312.25;4994868;28;20288;-76
2022/07/01 11:41:26;;;;;;;4.60;3.00;;;;;;;37.62;24.18;99306.31;4975543;28;20183;-78
2022/07/01 11:43:53;;;;;;;3.53;2.90;;;;;;;37.67;24.71;99308.72;4975729;28;20250;-76
2022/07/01 11:46:20;;;;;;;6.00;2.88;;;;;;;37.37;23.79;99298.84;4975402;28;20195;-84
2022/07/01 11:48:50;;;;;;;3.85;3.22;;;;;;;37.38;24.51;99295.69;4975167;28;20207;-77
2022/07/01 11:51:19;;;;;;;5.65;2.72;;;;;;;37.63;23.72;99291.25;4993590;28;20253;-77